sensor_id;sensor_type;location;lat;lon;timestamp;P1;durP1;ratioP1;P2;durP2;ratioP2
74483;SDS011;62942;52.462;10.846;2023-02-15T00:00:42;95;;;565.8;;
74483;SDS011;62942;52.462;10.846;2023-02-15T00:01:52;88.7;;;489.3;;
74483;SDS011;62942;52.462;10.846;2023-02-15T00:03:02;93.1;;;555.1;;
74483;SDS011;62942;52.462;10.846;2023-02-15T00:04:12;86.1;;;513;;
74483;SDS011;62942;52.462;10.846;2023-02-15T00:05:22;86.6;;;491.4;;
74483;SDS011;62942;52.462;10.846;2023-02-15T00:06:32;93;;;539.8;;
74483;SDS011;62942;52.462;10.846;2023-02-15T00:07:42;94.4;;;563.3;;
74483;SDS011;62942;52.462;10.846;2023-02-15T00:08:42;104.6;;;663.1;;
74483;SDS011;62942;52.462;10.846;2023-02-15T00:09:42;85.1;;;503.3;;
74483;SDS011;62942;52.462;10.846;2023-02-15T00:10:52;83.1;;;442.4;;
74483;SDS011;62942;52.462;10.846;2023-02-15T00:12:02;95.5;;;559.8;;
74483;SDS011;62942;52.462;10.846;2023-02-15T00:13:12;86.4;;;504;;
74483;SDS011;62942;52.462;10.846;2023-02-15T00:14:12;86.7;;;486.3;;
74483;SDS011;62942;52.462;10.846;2023-02-15T00:15:22;110.3;;;721.7;;
74483;SDS011;62942;52.462;10.846;2023-02-15T00:16:32;82;;;435.3;;
74483;SDS011;62942;52.462;10.846;2023-02-15T00:17:32;92.2;;;542.4;;
74483;SDS011;62942;52.462;10.846;2023-02-15T00:18:42;95.3;;;580;;
74483;SDS011;62942;52.462;10.846;2023-02-15T00:19:42;104.1;;;649.2;;
74483;SDS011;62942;52.462;10.846;2023-02-15T00:20:52;111.5;;;692.3;;
74483;SDS011;62942;52.462;10.846;2023-02-15T00:22:02;76.8;;;399.4;;
74483;SDS011;62942;52.462;10.846;2023-02-15T00:23:12;87.1;;;507;;
74483;SDS011;62942;52.462;10.846;2023-02-15T00:24:22;88.2;;;494.6;;
74483;SDS011;62942;52.462;10.846;2023-02-15T00:25:22;83.4;;;454.3;;
74483;SDS011;62942;52.462;10.846;2023-02-15T00:26:32;91;;;530.7;;
74483;SDS011;62942;52.462;10.846;2023-02-15T00:27:42;87.1;;;492;;
74483;SDS011;62942;52.462;10.846;2023-02-15T00:28:42;123.7;;;825.7;;
74483;SDS011;62942;52.462;10.846;2023-02-15T00:29:52;85.6;;;507.3;;
74483;SDS011;62942;52.462;10.846;2023-02-15T00:30:52;88.5;;;543.8;;
74483;SDS011;62942;52.462;10.846;2023-02-15T00:32:02;75.5;;;412.2;;
74483;SDS011;62942;52.462;10.846;2023-02-15T00:33:12;68.5;;;331.3;;
74483;SDS011;62942;52.462;10.846;2023-02-15T00:34:22;74;;;395.6;;
74483;SDS011;62942;52.462;10.846;2023-02-15T00:35:32;70.3;;;361.5;;
74483;SDS011;62942;52.462;10.846;2023-02-15T00:36:42;69.3;;;376.2;;
74483;SDS011;62942;52.462;10.846;2023-02-15T00:37:52;87;;;530.9;;
74483;SDS011;62942;52.462;10.846;2023-02-15T00:39:02;85.8;;;500.7;;
74483;SDS011;62942;52.462;10.846;2023-02-15T00:40:02;76.9;;;411.6;;
74483;SDS011;62942;52.462;10.846;2023-02-15T00:41:03;70.7;;;347.4;;
74483;SDS011;62942;52.462;10.846;2023-02-15T00:42:12;71.1;;;355.7;;
74483;SDS011;62942;52.462;10.846;2023-02-15T00:43:22;69.3;;;344.8;;
74483;SDS011;62942;52.462;10.846;2023-02-15T00:44:32;72.3;;;377.5;;
74483;SDS011;62942;52.462;10.846;2023-02-15T00:45:42;69.2;;;362.5;;
74483;SDS011;62942;52.462;10.846;2023-02-15T00:46:52;71.6;;;407.4;;
74483;SDS011;62942;52.462;10.846;2023-02-15T00:47:52;74.3;;;416;;
74483;SDS011;62942;52.462;10.846;2023-02-15T00:49:02;75.3;;;426;;
74483;SDS011;62942;52.462;10.846;2023-02-15T00:50:12;68.6;;;345.1;;
74483;SDS011;62942;52.462;10.846;2023-02-15T00:51:22;78.6;;;444.6;;
74483;SDS011;62942;52.462;10.846;2023-02-15T00:52:32;73.4;;;386.2;;
74483;SDS011;62942;52.462;10.846;2023-02-15T00:53:42;91.3;;;556.4;;
74483;SDS011;62942;52.462;10.846;2023-02-15T00:54:42;72.8;;;392.9;;
74483;SDS011;62942;52.462;10.846;2023-02-15T00:55:52;71.7;;;364.1;;
74483;SDS011;62942;52.462;10.846;2023-02-15T00:56:52;65.1;;;299.1;;
74483;SDS011;62942;52.462;10.846;2023-02-15T00:58:02;78.8;;;406.9;;
74483;SDS011;62942;52.462;10.846;2023-02-15T00:59:12;104;;;663;;
74483;SDS011;62942;52.462;10.846;2023-02-15T01:00:21;66.5;;;294;;
74483;SDS011;62942;52.462;10.846;2023-02-15T01:01:22;84.6;;;465.8;;
74483;SDS011;62942;52.462;10.846;2023-02-15T01:02:22;76.4;;;416.6;;
74483;SDS011;62942;52.462;10.846;2023-02-15T01:03:22;75.1;;;397.2;;
74483;SDS011;62942;52.462;10.846;2023-02-15T01:04:32;76.5;;;405.7;;
74483;SDS011;62942;52.462;10.846;2023-02-15T01:05:42;69.7;;;319.4;;
74483;SDS011;62942;52.462;10.846;2023-02-15T01:06:42;73.1;;;368.3;;
74483;SDS011;62942;52.462;10.846;2023-02-15T01:07:52;72.4;;;364.6;;
74483;SDS011;62942;52.462;10.846;2023-02-15T01:09:02;78.6;;;416.8;;
74483;SDS011;62942;52.462;10.846;2023-02-15T01:10:11;77.8;;;390.5;;
74483;SDS011;62942;52.462;10.846;2023-02-15T01:11:12;76.2;;;403.5;;
74483;SDS011;62942;52.462;10.846;2023-02-15T01:12:22;82.8;;;458.1;;
74483;SDS011;62942;52.462;10.846;2023-02-15T01:13:32;84.2;;;474;;
74483;SDS011;62942;52.462;10.846;2023-02-15T01:14:42;77.9;;;411;;
74483;SDS011;62942;52.462;10.846;2023-02-15T01:15:52;73.2;;;357.1;;
74483;SDS011;62942;52.462;10.846;2023-02-15T01:17:02;76.8;;;410.6;;
74483;SDS011;62942;52.462;10.846;2023-02-15T01:18:02;81.8;;;443.8;;
74483;SDS011;62942;52.462;10.846;2023-02-15T01:19:12;103;;;627.5;;
74483;SDS011;62942;52.462;10.846;2023-02-15T01:20:12;68.4;;;312.2;;
74483;SDS011;62942;52.462;10.846;2023-02-15T01:21:22;68.8;;;323.2;;
74483;SDS011;62942;52.462;10.846;2023-02-15T01:22:22;68.6;;;315.5;;
74483;SDS011;62942;52.462;10.846;2023-02-15T01:23:32;87.6;;;478.9;;
74483;SDS011;62942;52.462;10.846;2023-02-15T01:24:32;84.6;;;441.6;;
74483;SDS011;62942;52.462;10.846;2023-02-15T01:25:42;90.7;;;513.2;;
74483;SDS011;62942;52.462;10.846;2023-02-15T01:26:42;91.7;;;527.8;;
74483;SDS011;62942;52.462;10.846;2023-02-15T01:27:52;89.8;;;504.3;;
74483;SDS011;62942;52.462;10.846;2023-02-15T01:29:02;101.1;;;600.6;;
74483;SDS011;62942;52.462;10.846;2023-02-15T01:30:12;101;;;611.6;;
74483;SDS011;62942;52.462;10.846;2023-02-15T01:31:21;78;;;388.1;;
74483;SDS011;62942;52.462;10.846;2023-02-15T01:32:22;87.3;;;483.1;;
74483;SDS011;62942;52.462;10.846;2023-02-15T01:33:32;76.6;;;403.5;;
74483;SDS011;62942;52.462;10.846;2023-02-15T01:34:41;79.2;;;437.1;;
74483;SDS011;62942;52.462;10.846;2023-02-15T01:35:55;77.9;;;425.1;;
74483;SDS011;62942;52.462;10.846;2023-02-15T01:36:52;82;;;479;;
74483;SDS011;62942;52.462;10.846;2023-02-15T01:37:52;86.4;;;486.8;;
74483;SDS011;62942;52.462;10.846;2023-02-15T01:39:02;74.2;;;400.3;;
74483;SDS011;62942;52.462;10.846;2023-02-15T01:40:13;73.2;;;369.2;;
74483;SDS011;62942;52.462;10.846;2023-02-15T01:41:12;84.3;;;477.8;;
74483;SDS011;62942;52.462;10.846;2023-02-15T01:42:12;79.3;;;445.5;;
74483;SDS011;62942;52.462;10.846;2023-02-15T01:43:21;91;;;534.5;;
74483;SDS011;62942;52.462;10.846;2023-02-15T01:44:55;82.1;;;454.2;;
74483;SDS011;62942;52.462;10.846;2023-02-15T01:45:32;98.9;;;610.1;;
74483;SDS011;62942;52.462;10.846;2023-02-15T01:46:33;77.4;;;415.3;;
74483;SDS011;62942;52.462;10.846;2023-02-15T01:47:42;83.7;;;476.9;;
74483;SDS011;62942;52.462;10.846;2023-02-15T01:48:43;78.1;;;427.4;;
74483;SDS011;62942;52.462;10.846;2023-02-15T01:49:53;73.6;;;386.6;;
74483;SDS011;62942;52.462;10.846;2023-02-15T01:51:01;72.4;;;367.5;;
74483;SDS011;62942;52.462;10.846;2023-02-15T01:52:01;67.9;;;338.3;;
74483;SDS011;62942;52.462;10.846;2023-02-15T01:53:13;70.9;;;362.6;;
74483;SDS011;62942;52.462;10.846;2023-02-15T01:54:15;67.1;;;319.7;;
74483;SDS011;62942;52.462;10.846;2023-02-15T01:55:22;63.4;;;289.5;;
74483;SDS011;62942;52.462;10.846;2023-02-15T01:56:32;65.4;;;318.6;;
74483;SDS011;62942;52.462;10.846;2023-02-15T01:57:42;64.5;;;297.4;;
74483;SDS011;62942;52.462;10.846;2023-02-15T01:58:41;63.5;;;322.5;;
74483;SDS011;62942;52.462;10.846;2023-02-15T01:59:52;67.5;;;358.7;;
74483;SDS011;62942;52.462;10.846;2023-02-15T02:01:02;61.6;;;275.9;;
74483;SDS011;62942;52.462;10.846;2023-02-15T02:02:12;68.2;;;363.9;;
74483;SDS011;62942;52.462;10.846;2023-02-15T02:03:11;74.1;;;405.9;;
74483;SDS011;62942;52.462;10.846;2023-02-15T02:04:23;63.4;;;305.1;;
74483;SDS011;62942;52.462;10.846;2023-02-15T02:05:31;85.6;;;516.6;;
74483;SDS011;62942;52.462;10.846;2023-02-15T02:06:32;62.7;;;299.1;;
74483;SDS011;62942;52.462;10.846;2023-02-15T02:07:42;58.5;;;258;;
74483;SDS011;62942;52.462;10.846;2023-02-15T02:08:52;63.7;;;320.7;;
74483;SDS011;62942;52.462;10.846;2023-02-15T02:10:02;58.9;;;252;;
74483;SDS011;62942;52.462;10.846;2023-02-15T02:11:12;62.1;;;296.1;;
74483;SDS011;62942;52.462;10.846;2023-02-15T02:12:21;54.8;;;221.3;;
74483;SDS011;62942;52.462;10.846;2023-02-15T02:13:31;57.9;;;243.8;;
74483;SDS011;62942;52.462;10.846;2023-02-15T02:14:31;56.6;;;242;;
74483;SDS011;62942;52.462;10.846;2023-02-15T02:15:33;56.6;;;254.4;;
74483;SDS011;62942;52.462;10.846;2023-02-15T02:16:44;56.2;;;253;;
74483;SDS011;62942;52.462;10.846;2023-02-15T02:17:54;59.3;;;279.3;;
74483;SDS011;62942;52.462;10.846;2023-02-15T02:18:56;56.8;;;246;;
74483;SDS011;62942;52.462;10.846;2023-02-15T02:20:22;56.5;;;242.6;;
74483;SDS011;62942;52.462;10.846;2023-02-15T02:21:30;55.4;;;238;;
74483;SDS011;62942;52.462;10.846;2023-02-15T02:22:27;60.1;;;303.8;;
74483;SDS011;62942;52.462;10.846;2023-02-15T02:23:35;63.3;;;335.2;;
74483;SDS011;62942;52.462;10.846;2023-02-15T02:24:40;52.9;;;194.1;;
74483;SDS011;62942;52.462;10.846;2023-02-15T02:25:53;57.5;;;258.6;;
74483;SDS011;62942;52.462;10.846;2023-02-15T02:26:49;63.5;;;327;;
74483;SDS011;62942;52.462;10.846;2023-02-15T02:27:52;50.3;;;174.4;;
74483;SDS011;62942;52.462;10.846;2023-02-15T02:28:58;61.7;;;308.7;;
74483;SDS011;62942;52.462;10.846;2023-02-15T02:31:03;56.1;;;244.3;;
74483;SDS011;62942;52.462;10.846;2023-02-15T02:31:07;66.7;;;360.9;;
74483;SDS011;62942;52.462;10.846;2023-02-15T02:32:10;63;;;316.2;;
74483;SDS011;62942;52.462;10.846;2023-02-15T02:33:18;70.1;;;402.8;;
74483;SDS011;62942;52.462;10.846;2023-02-15T02:34:12;52.9;;;195.6;;
74483;SDS011;62942;52.462;10.846;2023-02-15T02:35:22;58.4;;;286.4;;
74483;SDS011;62942;52.462;10.846;2023-02-15T02:36:24;55.5;;;263.5;;
74483;SDS011;62942;52.462;10.846;2023-02-15T02:37:34;56.2;;;267.8;;
74483;SDS011;62942;52.462;10.846;2023-02-15T02:38:32;55.3;;;253.1;;
74483;SDS011;62942;52.462;10.846;2023-02-15T02:39:45;58.5;;;336.9;;
74483;SDS011;62942;52.462;10.846;2023-02-15T02:40:52;58.7;;;318;;
74483;SDS011;62942;52.462;10.846;2023-02-15T02:41:55;59.7;;;329.1;;
74483;SDS011;62942;52.462;10.846;2023-02-15T02:43:02;56.6;;;283.3;;
74483;SDS011;62942;52.462;10.846;2023-02-15T02:44:06;57;;;303.6;;
74483;SDS011;62942;52.462;10.846;2023-02-15T02:45:13;57.8;;;280;;
74483;SDS011;62942;52.462;10.846;2023-02-15T02:46:13;52.2;;;227.2;;
74483;SDS011;62942;52.462;10.846;2023-02-15T02:47:22;61.5;;;317.5;;
74483;SDS011;62942;52.462;10.846;2023-02-15T02:48:22;73.1;;;435.2;;
74483;SDS011;62942;52.462;10.846;2023-02-15T02:49:32;80.1;;;510.9;;
74483;SDS011;62942;52.462;10.846;2023-02-15T02:50:41;72.8;;;424.1;;
74483;SDS011;62942;52.462;10.846;2023-02-15T02:51:41;71.2;;;407.6;;
74483;SDS011;62942;52.462;10.846;2023-02-15T02:52:52;72.8;;;424;;
74483;SDS011;62942;52.462;10.846;2023-02-15T02:54:03;53.9;;;236.1;;
74483;SDS011;62942;52.462;10.846;2023-02-15T02:55:01;53.5;;;240.6;;
74483;SDS011;62942;52.462;10.846;2023-02-15T02:56:14;54.1;;;244.5;;
74483;SDS011;62942;52.462;10.846;2023-02-15T02:57:11;50.2;;;203.9;;
74483;SDS011;62942;52.462;10.846;2023-02-15T02:58:22;53.4;;;254.4;;
74483;SDS011;62942;52.462;10.846;2023-02-15T02:59:32;57;;;273.6;;
74483;SDS011;62942;52.462;10.846;2023-02-15T03:00:33;58.6;;;307.6;;
74483;SDS011;62942;52.462;10.846;2023-02-15T03:01:42;60;;;332.6;;
74483;SDS011;62942;52.462;10.846;2023-02-15T03:02:53;54.3;;;246.9;;
74483;SDS011;62942;52.462;10.846;2023-02-15T03:03:52;59.5;;;306.8;;
74483;SDS011;62942;52.462;10.846;2023-02-15T03:05:03;59.1;;;310.6;;
74483;SDS011;62942;52.462;10.846;2023-02-15T03:06:03;61.9;;;339.9;;
74483;SDS011;62942;52.462;10.846;2023-02-15T03:07:12;63.7;;;363.6;;
74483;SDS011;62942;52.462;10.846;2023-02-15T03:08:11;60;;;320.4;;
74483;SDS011;62942;52.462;10.846;2023-02-15T03:09:22;58.9;;;318.8;;
74483;SDS011;62942;52.462;10.846;2023-02-15T03:10:22;61.8;;;344.4;;
74483;SDS011;62942;52.462;10.846;2023-02-15T03:11:31;59.4;;;341;;
74483;SDS011;62942;52.462;10.846;2023-02-15T03:12:32;57.9;;;299.1;;
74483;SDS011;62942;52.462;10.846;2023-02-15T03:13:41;56.6;;;287.6;;
74483;SDS011;62942;52.462;10.846;2023-02-15T03:14:41;56.9;;;293.6;;
74483;SDS011;62942;52.462;10.846;2023-02-15T03:15:51;56.9;;;295.1;;
74483;SDS011;62942;52.462;10.846;2023-02-15T03:16:51;58.8;;;313.1;;
74483;SDS011;62942;52.462;10.846;2023-02-15T03:17:54;64.8;;;383.1;;
74483;SDS011;62942;52.462;10.846;2023-02-15T03:19:03;56;;;282.8;;
74483;SDS011;62942;52.462;10.846;2023-02-15T03:20:14;63;;;360.5;;
74483;SDS011;62942;52.462;10.846;2023-02-15T03:21:11;59.3;;;329.4;;
74483;SDS011;62942;52.462;10.846;2023-02-15T03:22:22;66.6;;;370.5;;
74483;SDS011;62942;52.462;10.846;2023-02-15T03:23:31;65.7;;;387.4;;
74483;SDS011;62942;52.462;10.846;2023-02-15T03:24:32;56.3;;;266.4;;
74483;SDS011;62942;52.462;10.846;2023-02-15T03:25:32;59.5;;;309.9;;
74483;SDS011;62942;52.462;10.846;2023-02-15T03:26:42;52.3;;;217.5;;
74483;SDS011;62942;52.462;10.846;2023-02-15T03:27:52;62.3;;;353.3;;
74483;SDS011;62942;52.462;10.846;2023-02-15T03:29:02;54.6;;;270.8;;
74483;SDS011;62942;52.462;10.846;2023-02-15T03:30:02;58.7;;;318.3;;
74483;SDS011;62942;52.462;10.846;2023-02-15T03:31:11;59.5;;;314;;
74483;SDS011;62942;52.462;10.846;2023-02-15T03:32:11;58.9;;;301.5;;
74483;SDS011;62942;52.462;10.846;2023-02-15T03:33:11;59.1;;;290.7;;
74483;SDS011;62942;52.462;10.846;2023-02-15T03:34:21;59.5;;;295.6;;
74483;SDS011;62942;52.462;10.846;2023-02-15T03:35:22;65.5;;;353;;
74483;SDS011;62942;52.462;10.846;2023-02-15T03:36:33;58.3;;;312;;
74483;SDS011;62942;52.462;10.846;2023-02-15T03:37:42;53.6;;;273.7;;
74483;SDS011;62942;52.462;10.846;2023-02-15T03:38:43;56.4;;;277.9;;
74483;SDS011;62942;52.462;10.846;2023-02-15T03:39:52;58.7;;;296.7;;
74483;SDS011;62942;52.462;10.846;2023-02-15T03:40:51;56.8;;;292.9;;
74483;SDS011;62942;52.462;10.846;2023-02-15T03:41:54;54.7;;;244.5;;
74483;SDS011;62942;52.462;10.846;2023-02-15T03:43:02;54.1;;;244;;
74483;SDS011;62942;52.462;10.846;2023-02-15T03:44:03;54.8;;;256.9;;
74483;SDS011;62942;52.462;10.846;2023-02-15T03:45:02;55.1;;;274;;
74483;SDS011;62942;52.462;10.846;2023-02-15T03:46:03;55.8;;;264.5;;
74483;SDS011;62942;52.462;10.846;2023-02-15T03:47:12;56.6;;;286.2;;
74483;SDS011;62942;52.462;10.846;2023-02-15T03:48:22;53.3;;;250;;
74483;SDS011;62942;52.462;10.846;2023-02-15T03:49:34;68;;;392.8;;
74483;SDS011;62942;52.462;10.846;2023-02-15T03:50:41;57.6;;;303;;
74483;SDS011;62942;52.462;10.846;2023-02-15T03:51:42;54.7;;;268.3;;
74483;SDS011;62942;52.462;10.846;2023-02-15T03:52:41;52.7;;;254.8;;
74483;SDS011;62942;52.462;10.846;2023-02-15T03:53:51;56.7;;;296.5;;
74483;SDS011;62942;52.462;10.846;2023-02-15T03:55:01;57.7;;;294.6;;
74483;SDS011;62942;52.462;10.846;2023-02-15T03:56:01;70.5;;;421.6;;
74483;SDS011;62942;52.462;10.846;2023-02-15T03:57:13;54.2;;;252.1;;
74483;SDS011;62942;52.462;10.846;2023-02-15T03:58:11;63.9;;;342.1;;
74483;SDS011;62942;52.462;10.846;2023-02-15T03:59:11;55.1;;;283.6;;
74483;SDS011;62942;52.462;10.846;2023-02-15T04:00:22;57.3;;;291.3;;
74483;SDS011;62942;52.462;10.846;2023-02-15T04:01:23;53;;;230.2;;
74483;SDS011;62942;52.462;10.846;2023-02-15T04:02:33;49.6;;;198.1;;
74483;SDS011;62942;52.462;10.846;2023-02-15T04:03:32;52.5;;;245.5;;
74483;SDS011;62942;52.462;10.846;2023-02-15T04:04:45;54;;;273.2;;
74483;SDS011;62942;52.462;10.846;2023-02-15T04:05:41;59.2;;;338.1;;
74483;SDS011;62942;52.462;10.846;2023-02-15T04:06:41;56.1;;;323.9;;
74483;SDS011;62942;52.462;10.846;2023-02-15T04:07:51;58.5;;;314.7;;
74483;SDS011;62942;52.462;10.846;2023-02-15T04:09:01;62.6;;;385.5;;
74483;SDS011;62942;52.462;10.846;2023-02-15T04:10:01;64;;;387.9;;
74483;SDS011;62942;52.462;10.846;2023-02-15T04:11:11;55.9;;;311.3;;
74483;SDS011;62942;52.462;10.846;2023-02-15T04:12:11;54.1;;;265.1;;
74483;SDS011;62942;52.462;10.846;2023-02-15T04:13:22;71;;;440.6;;
74483;SDS011;62942;52.462;10.846;2023-02-15T04:14:21;65.2;;;367;;
74483;SDS011;62942;52.462;10.846;2023-02-15T04:15:21;61.1;;;324.5;;
74483;SDS011;62942;52.462;10.846;2023-02-15T04:16:31;61;;;364.4;;
74483;SDS011;62942;52.462;10.846;2023-02-15T04:17:31;71.8;;;441.4;;
74483;SDS011;62942;52.462;10.846;2023-02-15T04:18:42;65.2;;;385.5;;
74483;SDS011;62942;52.462;10.846;2023-02-15T04:19:41;53.1;;;241.1;;
74483;SDS011;62942;52.462;10.846;2023-02-15T04:20:51;52.8;;;263.6;;
74483;SDS011;62942;52.462;10.846;2023-02-15T04:22:01;50.4;;;225;;
74483;SDS011;62942;52.462;10.846;2023-02-15T04:23:11;66.3;;;399;;
74483;SDS011;62942;52.462;10.846;2023-02-15T04:24:11;53.9;;;252.1;;
74483;SDS011;62942;52.462;10.846;2023-02-15T04:25:11;65;;;375.8;;
74483;SDS011;62942;52.462;10.846;2023-02-15T04:26:11;50.9;;;218;;
74483;SDS011;62942;52.462;10.846;2023-02-15T04:27:21;55.9;;;287.7;;
74483;SDS011;62942;52.462;10.846;2023-02-15T04:28:21;55.7;;;274.1;;
74483;SDS011;62942;52.462;10.846;2023-02-15T04:29:31;53.4;;;253.6;;
74483;SDS011;62942;52.462;10.846;2023-02-15T04:30:41;51.2;;;231.6;;
74483;SDS011;62942;52.462;10.846;2023-02-15T04:31:41;69.7;;;439.2;;
74483;SDS011;62942;52.462;10.846;2023-02-15T04:32:41;58.9;;;319.3;;
74483;SDS011;62942;52.462;10.846;2023-02-15T04:33:51;49.5;;;212.1;;
74483;SDS011;62942;52.462;10.846;2023-02-15T04:35:02;52.5;;;271.6;;
74483;SDS011;62942;52.462;10.846;2023-02-15T04:36:01;49.1;;;216;;
74483;SDS011;62942;52.462;10.846;2023-02-15T04:37:01;47.6;;;191.4;;
74483;SDS011;62942;52.462;10.846;2023-02-15T04:38:01;62.8;;;338.8;;
74483;SDS011;62942;52.462;10.846;2023-02-15T04:39:12;59.5;;;332.9;;
74483;SDS011;62942;52.462;10.846;2023-02-15T04:40:12;52.6;;;250.8;;
74483;SDS011;62942;52.462;10.846;2023-02-15T04:41:21;47.4;;;195;;
74483;SDS011;62942;52.462;10.846;2023-02-15T04:42:21;54.6;;;274.8;;
74483;SDS011;62942;52.462;10.846;2023-02-15T04:43:31;54.6;;;278.6;;
74483;SDS011;62942;52.462;10.846;2023-02-15T04:44:31;64.4;;;373.8;;
74483;SDS011;62942;52.462;10.846;2023-02-15T04:45:31;56.5;;;292.6;;
74483;SDS011;62942;52.462;10.846;2023-02-15T04:46:41;63.9;;;367.7;;
74483;SDS011;62942;52.462;10.846;2023-02-15T04:47:41;55.8;;;293.9;;
74483;SDS011;62942;52.462;10.846;2023-02-15T04:48:41;54.7;;;273;;
74483;SDS011;62942;52.462;10.846;2023-02-15T04:49:51;53.6;;;272;;
74483;SDS011;62942;52.462;10.846;2023-02-15T04:50:51;52.2;;;243.9;;
74483;SDS011;62942;52.462;10.846;2023-02-15T04:52:01;55.8;;;274.1;;
74483;SDS011;62942;52.462;10.846;2023-02-15T04:53:01;52;;;249;;
74483;SDS011;62942;52.462;10.846;2023-02-15T04:54:01;55.3;;;287.4;;
74483;SDS011;62942;52.462;10.846;2023-02-15T04:55:11;52.4;;;241.2;;
74483;SDS011;62942;52.462;10.846;2023-02-15T04:56:11;49.5;;;214.2;;
74483;SDS011;62942;52.462;10.846;2023-02-15T04:57:11;63.1;;;363.5;;
74483;SDS011;62942;52.462;10.846;2023-02-15T04:58:21;53.3;;;251.7;;
74483;SDS011;62942;52.462;10.846;2023-02-15T04:59:21;69;;;403.8;;
74483;SDS011;62942;52.462;10.846;2023-02-15T05:00:31;58.1;;;313.3;;
74483;SDS011;62942;52.462;10.846;2023-02-15T05:01:31;53.5;;;246.8;;
74483;SDS011;62942;52.462;10.846;2023-02-15T05:02:41;60.5;;;339.9;;
74483;SDS011;62942;52.462;10.846;2023-02-15T05:03:51;54.4;;;279.9;;
74483;SDS011;62942;52.462;10.846;2023-02-15T05:04:51;65.6;;;386.9;;
74483;SDS011;62942;52.462;10.846;2023-02-15T05:06:01;58.9;;;300;;
74483;SDS011;62942;52.462;10.846;2023-02-15T05:07:01;62.2;;;373.6;;
74483;SDS011;62942;52.462;10.846;2023-02-15T05:08:01;52.8;;;250.7;;
74483;SDS011;62942;52.462;10.846;2023-02-15T05:09:11;56.4;;;280.1;;
74483;SDS011;62942;52.462;10.846;2023-02-15T05:10:21;60.6;;;332.1;;
74483;SDS011;62942;52.462;10.846;2023-02-15T05:11:21;51.5;;;231;;
74483;SDS011;62942;52.462;10.846;2023-02-15T05:12:21;56.8;;;293.2;;
74483;SDS011;62942;52.462;10.846;2023-02-15T05:13:31;52.8;;;266.6;;
74483;SDS011;62942;52.462;10.846;2023-02-15T05:14:31;62.9;;;349;;
74483;SDS011;62942;52.462;10.846;2023-02-15T05:15:41;57.9;;;316.9;;
74483;SDS011;62942;52.462;10.846;2023-02-15T05:16:41;62;;;353.1;;
74483;SDS011;62942;52.462;10.846;2023-02-15T05:17:41;62.6;;;362.1;;
74483;SDS011;62942;52.462;10.846;2023-02-15T05:18:51;61.1;;;343.7;;
74483;SDS011;62942;52.462;10.846;2023-02-15T05:19:51;54.9;;;263.3;;
74483;SDS011;62942;52.462;10.846;2023-02-15T05:21:01;56.6;;;275.3;;
74483;SDS011;62942;52.462;10.846;2023-02-15T05:22:01;53.2;;;248.3;;
74483;SDS011;62942;52.462;10.846;2023-02-15T05:23:01;60;;;326.3;;
74483;SDS011;62942;52.462;10.846;2023-02-15T05:24:11;53.5;;;268.2;;
74483;SDS011;62942;52.462;10.846;2023-02-15T05:25:11;53.7;;;270.4;;
74483;SDS011;62942;52.462;10.846;2023-02-15T05:26:22;51.3;;;258.1;;
74483;SDS011;62942;52.462;10.846;2023-02-15T05:27:21;54.9;;;269.8;;
74483;SDS011;62942;52.462;10.846;2023-02-15T05:28:31;53.6;;;256.5;;
74483;SDS011;62942;52.462;10.846;2023-02-15T05:29:31;51.9;;;250.8;;
74483;SDS011;62942;52.462;10.846;2023-02-15T05:30:41;51.6;;;254.2;;
74483;SDS011;62942;52.462;10.846;2023-02-15T05:31:41;51;;;230.9;;
74483;SDS011;62942;52.462;10.846;2023-02-15T05:32:51;48.4;;;215.3;;
74483;SDS011;62942;52.462;10.846;2023-02-15T05:33:51;53.2;;;284.9;;
74483;SDS011;62942;52.462;10.846;2023-02-15T05:35:01;55.2;;;304.5;;
74483;SDS011;62942;52.462;10.846;2023-02-15T05:36:01;49.1;;;235.6;;
74483;SDS011;62942;52.462;10.846;2023-02-15T05:37:11;50.4;;;245.6;;
74483;SDS011;62942;52.462;10.846;2023-02-15T05:38:11;53.9;;;281.8;;
74483;SDS011;62942;52.462;10.846;2023-02-15T05:39:11;50.6;;;283.4;;
74483;SDS011;62942;52.462;10.846;2023-02-15T05:40:11;49.6;;;235.8;;
74483;SDS011;62942;52.462;10.846;2023-02-15T05:41:21;48.6;;;252.1;;
74483;SDS011;62942;52.462;10.846;2023-02-15T05:42:21;50.9;;;258;;
74483;SDS011;62942;52.462;10.846;2023-02-15T05:43:21;51.1;;;257;;
74483;SDS011;62942;52.462;10.846;2023-02-15T05:44:31;47.6;;;213.8;;
74483;SDS011;62942;52.462;10.846;2023-02-15T05:45:43;48.4;;;210.1;;
74483;SDS011;62942;52.462;10.846;2023-02-15T05:46:51;47.9;;;224.4;;
74483;SDS011;62942;52.462;10.846;2023-02-15T05:47:51;46.1;;;204.5;;
74483;SDS011;62942;52.462;10.846;2023-02-15T05:48:51;47.6;;;236.5;;
74483;SDS011;62942;52.462;10.846;2023-02-15T05:50:01;52.9;;;300.9;;
74483;SDS011;62942;52.462;10.846;2023-02-15T05:51:02;49.5;;;244.4;;
74483;SDS011;62942;52.462;10.846;2023-02-15T05:52:11;46.2;;;222.6;;
74483;SDS011;62942;52.462;10.846;2023-02-15T05:53:11;49.1;;;235.3;;
74483;SDS011;62942;52.462;10.846;2023-02-15T05:54:21;49.9;;;238.9;;
74483;SDS011;62942;52.462;10.846;2023-02-15T05:55:31;46.7;;;206.3;;
74483;SDS011;62942;52.462;10.846;2023-02-15T05:56:31;49.5;;;224.2;;
74483;SDS011;62942;52.462;10.846;2023-02-15T05:57:41;46.8;;;219.9;;
74483;SDS011;62942;52.462;10.846;2023-02-15T05:58:52;49.1;;;241.1;;
74483;SDS011;62942;52.462;10.846;2023-02-15T05:59:51;52.4;;;264;;
74483;SDS011;62942;52.462;10.846;2023-02-15T06:00:51;45.9;;;185.9;;
74483;SDS011;62942;52.462;10.846;2023-02-15T06:02:01;50.6;;;269.4;;
74483;SDS011;62942;52.462;10.846;2023-02-15T06:03:11;46.3;;;206.3;;
74483;SDS011;62942;52.462;10.846;2023-02-15T06:04:12;62.3;;;357.9;;
74483;SDS011;62942;52.462;10.846;2023-02-15T06:05:21;47.4;;;202.3;;
74483;SDS011;62942;52.462;10.846;2023-02-15T06:06:21;49.5;;;218.3;;
74483;SDS011;62942;52.462;10.846;2023-02-15T06:07:31;53.3;;;272;;
74483;SDS011;62942;52.462;10.846;2023-02-15T06:08:41;50.3;;;251.2;;
74483;SDS011;62942;52.462;10.846;2023-02-15T06:09:41;61.1;;;348.1;;
74483;SDS011;62942;52.462;10.846;2023-02-15T06:10:51;46.8;;;216.1;;
74483;SDS011;62942;52.462;10.846;2023-02-15T06:12:01;43.9;;;146.8;;
74483;SDS011;62942;52.462;10.846;2023-02-15T06:13:01;52.1;;;262.6;;
74483;SDS011;62942;52.462;10.846;2023-02-15T06:14:11;44.9;;;200.4;;
74483;SDS011;62942;52.462;10.846;2023-02-15T06:15:11;45.5;;;199.1;;
74483;SDS011;62942;52.462;10.846;2023-02-15T06:16:21;45.3;;;209.9;;
74483;SDS011;62942;52.462;10.846;2023-02-15T06:17:31;46.1;;;205.5;;
74483;SDS011;62942;52.462;10.846;2023-02-15T06:18:31;54.1;;;326.7;;
74483;SDS011;62942;52.462;10.846;2023-02-15T06:19:41;47;;;237.8;;
74483;SDS011;62942;52.462;10.846;2023-02-15T06:20:41;44.5;;;205.2;;
74483;SDS011;62942;52.462;10.846;2023-02-15T06:21:51;45.4;;;216.5;;
74483;SDS011;62942;52.462;10.846;2023-02-15T06:22:51;49.2;;;267.2;;
74483;SDS011;62942;52.462;10.846;2023-02-15T06:24:01;43;;;168.4;;
74483;SDS011;62942;52.462;10.846;2023-02-15T06:25:11;43;;;172.3;;
74483;SDS011;62942;52.462;10.846;2023-02-15T06:26:21;49.2;;;234.6;;